createdAt,value
2019-02-11T00:00:02.485Z,100.00
2019-02-11T00:02:31.167Z,100.00
2019-02-11T00:04:59.662Z,100.00
2019-02-11T00:07:28.202Z,100.00
2019-02-11T00:09:56.755Z,100.00
2019-02-11T00:12:25.326Z,100.00
2019-02-11T00:15:00.028Z,100.00
2019-02-11T00:17:28.506Z,100.00
2019-02-11T00:19:57.039Z,100.00
2019-02-11T00:22:25.596Z,100.00
2019-02-11T00:24:54.131Z,100.00
2019-02-11T00:27:22.700Z,100.00
2019-02-11T00:29:51.299Z,100.00
2019-02-11T00:32:19.800Z,100.00
2019-02-11T00:34:48.416Z,100.00
2019-02-11T00:37:16.957Z,100.00
2019-02-11T00:39:45.459Z,100.00
2019-02-11T00:42:13.984Z,100.00
2019-02-11T00:44:42.553Z,100.00
2019-02-11T00:47:17.134Z,100.00
2019-02-11T00:49:45.670Z,100.00
2019-02-11T00:52:14.251Z,100.00
2019-02-11T00:54:42.920Z,100.00
2019-02-11T00:57:11.436Z,100.00
2019-02-11T00:59:39.999Z,100.00
2019-02-11T01:02:08.668Z,100.00
2019-02-11T01:04:37.229Z,100.00
2019-02-11T01:07:12.595Z,100.00
2019-02-11T01:09:41.267Z,100.00
2019-02-11T01:12:09.859Z,100.00
2019-02-11T01:14:38.409Z,100.00
2019-02-11T01:17:07.061Z,100.00
2019-02-11T01:19:35.752Z,100.00
2019-02-11T01:22:04.394Z,100.00
2019-02-11T01:24:33.007Z,100.00
2019-02-11T01:27:01.606Z,100.00
2019-02-11T01:29:30.223Z,100.00
2019-02-11T01:31:58.829Z,100.00
2019-02-11T01:34:27.394Z,100.00
2019-02-11T01:36:55.947Z,100.00
2019-02-11T01:39:24.497Z,100.00
2019-02-11T01:41:53.083Z,100.00
2019-02-11T01:44:21.697Z,100.00
2019-02-11T01:46:50.276Z,100.00
2019-02-11T01:49:18.929Z,100.00
2019-02-11T01:51:47.463Z,100.00
2019-02-11T01:54:16.146Z,100.00
2019-02-11T01:56:44.841Z,100.00
2019-02-11T01:59:13.420Z,100.00
2019-02-11T02:01:42.115Z,100.00
2019-02-11T02:04:10.756Z,100.00
2019-02-11T02:06:39.374Z,100.00
2019-02-11T02:09:08.350Z,100.00
2019-02-11T02:11:36.846Z,100.00
2019-02-11T02:14:05.427Z,100.00
2019-02-11T02:16:33.996Z,100.00
2019-02-11T02:19:02.525Z,100.00
2019-02-11T02:21:31.100Z,100.00
2019-02-11T02:23:59.713Z,100.00
2019-02-11T02:26:28.281Z,100.00
2019-02-11T02:28:56.771Z,100.00
2019-02-11T02:31:25.296Z,100.00
2019-02-11T02:33:53.810Z,100.00
2019-02-11T02:36:27.998Z,100.00
2019-02-11T02:38:56.567Z,100.00
2019-02-11T02:41:25.187Z,100.00
2019-02-11T02:43:55.843Z,100.00
2019-02-11T02:46:24.071Z,100.00
2019-02-11T02:48:52.645Z,100.00
2019-02-11T02:51:21.322Z,100.00
2019-02-11T02:53:49.871Z,100.00
2019-02-11T02:56:18.438Z,100.00
2019-02-11T02:58:47.139Z,100.00
2019-02-11T03:01:15.780Z,100.00
2019-02-11T03:03:44.397Z,100.00
2019-02-11T03:06:12.971Z,100.00
2019-02-11T03:08:44.700Z,100.00
2019-02-11T03:11:16.179Z,100.00
2019-02-11T03:13:44.859Z,100.00
2019-02-11T03:16:16.707Z,100.00
2019-02-11T03:18:45.370Z,100.00
2019-02-11T03:21:14.027Z,100.00
2019-02-11T03:23:47.299Z,100.00
2019-02-11T03:26:15.877Z,100.00
2019-02-11T03:28:44.493Z,100.00
2019-02-11T03:31:13.027Z,100.00
2019-02-11T03:33:41.604Z,100.00
2019-02-11T03:36:10.262Z,100.00
2019-02-11T03:38:38.888Z,100.00
2019-02-11T03:41:07.576Z,100.00
2019-02-11T03:43:36.164Z,100.00
2019-02-11T03:46:04.852Z,100.00
2019-02-11T03:48:33.456Z,100.00
2019-02-11T03:51:02.087Z,100.00
2019-02-11T03:53:30.820Z,100.00
2019-02-11T03:55:59.512Z,100.00
2019-02-11T03:58:28.075Z,100.00
2019-02-11T04:00:56.671Z,100.00
2019-02-11T04:03:25.374Z,100.00
2019-02-11T04:05:54.020Z,100.00
2019-02-11T04:08:22.568Z,100.00
2019-02-11T04:10:51.132Z,100.00
2019-02-11T04:13:19.826Z,100.00
2019-02-11T04:15:48.447Z,100.00
2019-02-11T04:18:19.773Z,100.00
2019-02-11T04:20:49.114Z,100.00
2019-02-11T04:23:17.981Z,100.00
2019-02-11T04:25:46.550Z,100.00
2019-02-11T04:28:15.058Z,100.00
2019-02-11T04:30:43.628Z,100.00
2019-02-11T04:33:12.371Z,100.00
2019-02-11T04:35:44.781Z,100.00
2019-02-11T04:38:13.476Z,100.00
2019-02-11T04:40:42.119Z,100.00
2019-02-11T04:43:10.713Z,100.00
2019-02-11T04:45:39.280Z,100.00
2019-02-11T04:48:07.925Z,100.00
2019-02-11T04:50:36.579Z,100.00
2019-02-11T04:53:05.241Z,100.00
2019-02-11T04:55:33.889Z,100.00
2019-02-11T04:58:05.628Z,100.00
2019-02-11T05:00:34.282Z,100.00
2019-02-11T05:03:02.893Z,100.00
2019-02-11T05:05:31.481Z,100.00
2019-02-11T05:08:00.147Z,100.00
2019-02-11T05:10:28.719Z,100.00
2019-02-11T05:12:57.417Z,100.00
2019-02-11T05:15:26.030Z,100.00
2019-02-11T05:17:54.570Z,100.00
2019-02-11T05:20:23.219Z,100.00
2019-02-11T05:22:51.786Z,100.00
2019-02-11T05:25:20.420Z,100.00
2019-02-11T05:27:49.124Z,100.00
2019-02-11T05:30:17.797Z,100.00
2019-02-11T05:32:46.452Z,100.00
2019-02-11T05:35:15.152Z,100.00
2019-02-11T05:37:44.265Z,100.00
2019-02-11T05:40:19.026Z,100.00
2019-02-11T05:42:47.805Z,100.00
2019-02-11T05:45:16.420Z,100.00
2019-02-11T05:47:44.925Z,100.00
2019-02-11T05:50:13.741Z,100.00
2019-02-11T05:52:42.397Z,100.00
2019-02-11T05:55:11.040Z,100.00
2019-02-11T05:57:39.946Z,100.00
2019-02-11T06:00:12.215Z,100.00
2019-02-11T06:02:41.034Z,100.00
2019-02-11T06:05:11.577Z,100.00
2019-02-11T06:07:40.580Z,100.00
2019-02-11T06:10:11.383Z,100.00
2019-02-11T06:12:42.999Z,100.00
2019-02-11T06:15:11.902Z,100.00
2019-02-11T06:17:40.858Z,100.00
2019-02-11T06:20:10.511Z,100.00
2019-02-11T06:22:42.208Z,100.00
2019-02-11T06:25:10.996Z,100.00
2019-02-11T06:27:41.312Z,100.00
2019-02-11T06:30:12.593Z,100.00
2019-02-11T06:32:41.595Z,100.00
2019-02-11T06:35:11.844Z,100.00
2019-02-11T06:37:43.591Z,100.00
2019-02-11T06:40:15.015Z,100.00
2019-02-11T06:42:43.595Z,100.00
2019-02-11T06:45:13.367Z,100.00
2019-02-11T06:47:42.506Z,100.00
2019-02-11T06:50:15.594Z,100.00
2019-02-11T06:52:44.323Z,100.00
2019-02-11T06:55:13.203Z,100.00
2019-02-11T06:57:41.886Z,100.00
2019-02-11T07:00:17.197Z,100.00
2019-02-11T07:02:45.927Z,100.00
2019-02-11T07:05:14.724Z,100.00
2019-02-11T07:07:46.612Z,100.00
2019-02-11T07:10:15.521Z,100.00
2019-02-11T07:12:44.345Z,100.00
2019-02-11T07:15:21.729Z,100.00
2019-02-11T07:17:44.898Z,100.00
2019-02-11T07:20:15.106Z,100.00
2019-02-11T07:22:46.953Z,100.00
2019-02-11T07:25:16.686Z,100.00
2019-02-11T07:27:47.096Z,100.00
2019-02-11T07:30:22.791Z,100.00
2019-02-11T07:32:54.818Z,100.00
2019-02-11T07:35:30.138Z,100.00
2019-02-11T07:37:59.137Z,100.00
2019-02-11T07:40:28.963Z,100.00
2019-02-11T07:43:05.079Z,100.00
2019-02-11T07:45:36.853Z,98.82
2019-02-11T07:48:05.862Z,94.89
2019-02-11T07:50:37.708Z,91.36
2019-02-11T07:53:14.108Z,90.54
2019-02-11T07:55:44.728Z,88.47
2019-02-11T07:58:16.587Z,84.75
2019-02-11T08:00:46.963Z,84.45
2019-02-11T08:03:15.673Z,83.05
2019-02-11T08:05:44.380Z,78.13
2019-02-11T08:08:12.941Z,71.83
2019-02-11T08:10:41.594Z,70.96
2019-02-11T08:13:10.190Z,72.96
2019-02-11T08:15:38.901Z,76.82
2019-02-11T08:18:10.507Z,77.57
2019-02-11T08:20:39.355Z,76.20
2019-02-11T08:23:12.954Z,74.88
2019-02-11T08:25:38.495Z,77.23
2019-02-11T08:28:19.649Z,82.91
2019-02-11T08:30:49.894Z,84.25
2019-02-11T08:33:19.204Z,91.08
2019-02-11T08:35:48.146Z,91.74
2019-02-11T08:38:19.960Z,92.49
2019-02-11T08:40:55.754Z,86.49
2019-02-11T08:43:24.754Z,81.43
2019-02-11T08:45:53.706Z,84.40
2019-02-11T08:48:22.439Z,81.51
2019-02-11T08:50:56.597Z,82.46
2019-02-11T08:53:25.752Z,85.05
2019-02-11T08:55:54.495Z,85.71
2019-02-11T08:58:26.111Z,79.57
2019-02-11T09:00:54.766Z,75.16
2019-02-11T09:03:23.874Z,74.07
2019-02-11T09:05:52.691Z,72.86
2019-02-11T09:08:21.468Z,71.91
2019-02-11T09:10:50.398Z,67.51
2019-02-11T09:13:19.213Z,62.81
2019-02-11T09:15:55.267Z,58.71
2019-02-11T09:18:22.742Z,52.98
2019-02-11T09:20:52.871Z,53.94
2019-02-11T09:23:24.694Z,57.06
2019-02-11T09:25:55.851Z,60.93
2019-02-11T09:28:24.959Z,64.50
2019-02-11T09:30:53.981Z,57.90
2019-02-11T09:33:23.090Z,53.97
2019-02-11T09:35:54.899Z,53.07
2019-02-11T09:38:24.012Z,50.76
2019-02-11T09:40:58.668Z,53.18
2019-02-11T09:43:27.617Z,50.22
2019-02-11T09:46:03.912Z,48.75
2019-02-11T09:48:32.523Z,46.51
2019-02-11T09:51:02.204Z,48.70
2019-02-11T09:53:31.322Z,49.70
2019-02-11T09:56:04.246Z,49.53
2019-02-11T09:58:32.972Z,45.61
2019-02-11T10:01:01.645Z,44.35
2019-02-11T10:03:30.181Z,43.06
2019-02-11T10:05:58.872Z,45.52
2019-02-11T10:08:27.410Z,48.25
2019-02-11T10:10:55.975Z,52.64
2019-02-11T10:13:24.639Z,54.86
2019-02-11T10:15:53.346Z,52.59
2019-02-11T10:18:22.039Z,50.52
2019-02-11T10:20:50.617Z,46.13
2019-02-11T10:23:19.223Z,44.28
2019-02-11T10:25:47.829Z,44.18
2019-02-11T10:28:16.474Z,48.74
2019-02-11T10:30:45.089Z,52.57
2019-02-11T10:33:15.431Z,55.90
2019-02-11T10:35:44.449Z,54.47
2019-02-11T10:38:15.155Z,55.27
2019-02-11T10:40:46.745Z,55.26
2019-02-11T10:43:15.169Z,51.35
2019-02-11T10:45:44.087Z,46.87
2019-02-11T10:48:17.782Z,43.94
2019-02-11T10:50:47.190Z,43.94
2019-02-11T10:53:26.271Z,42.93
2019-02-11T10:55:56.199Z,41.59
2019-02-11T10:58:25.224Z,39.46
2019-02-11T11:00:54.175Z,38.07
2019-02-11T11:03:23.043Z,38.79
2019-02-11T11:05:52.078Z,38.06
2019-02-11T11:08:21.049Z,36.14
2019-02-11T11:10:51.250Z,34.01
2019-02-11T11:13:24.402Z,33.69
2019-02-11T11:15:53.384Z,35.36
2019-02-11T11:18:24.957Z,34.91
2019-02-11T11:20:55.623Z,32.36
2019-02-11T11:23:27.018Z,33.17
2019-02-11T11:25:56.595Z,33.43
2019-02-11T11:28:25.420Z,32.96
2019-02-11T11:30:55.741Z,31.84
2019-02-11T11:33:26.233Z,31.74
2019-02-11T11:35:55.151Z,34.49
2019-02-11T11:38:28.308Z,34.96
2019-02-11T11:41:01.860Z,35.06
2019-02-11T11:43:30.880Z,35.08
2019-02-11T11:46:03.328Z,36.95
2019-02-11T11:48:34.237Z,38.11
2019-02-11T11:51:07.895Z,39.25
2019-02-11T11:53:38.642Z,41.08
2019-02-11T11:56:09.858Z,44.58
2019-02-11T11:58:38.454Z,46.24
2019-02-11T12:01:07.281Z,48.54
2019-02-11T12:03:41.475Z,55.26
2019-02-11T12:06:17.811Z,59.14
2019-02-11T12:08:47.067Z,62.67
2019-02-11T12:11:18.951Z,63.25
2019-02-11T12:13:47.655Z,63.81
2019-02-11T12:16:27.854Z,69.81
2019-02-11T12:19:08.155Z,76.56
2019-02-11T12:21:42.513Z,79.77
2019-02-11T12:24:13.110Z,85.08
2019-02-11T12:26:42.864Z,87.26
2019-02-11T12:29:12.345Z,84.62
2019-02-11T12:31:41.676Z,85.06
2019-02-11T12:34:10.798Z,91.48
2019-02-11T12:36:41.838Z,89.56
2019-02-11T12:39:10.625Z,93.87
2019-02-11T12:41:40.062Z,95.69
2019-02-11T12:44:10.700Z,99.44
2019-02-11T12:46:47.211Z,100.00
2019-02-11T12:49:24.502Z,100.00
2019-02-11T12:51:55.297Z,100.00
2019-02-11T12:54:32.540Z,100.00
2019-02-11T12:57:05.570Z,100.00
2019-02-11T12:59:35.028Z,100.00
2019-02-11T13:02:03.716Z,100.00
2019-02-11T13:04:32.440Z,100.00
2019-02-11T13:07:01.066Z,100.00
2019-02-11T13:09:29.710Z,100.00
2019-02-11T13:11:58.251Z,100.00
2019-02-11T13:14:29.765Z,99.60
2019-02-11T13:17:14.254Z,100.00
2019-02-11T13:19:32.185Z,100.00
2019-02-11T13:22:01.555Z,100.00
2019-02-11T13:24:32.526Z,100.00
2019-02-11T13:27:02.057Z,100.00
2019-02-11T13:29:32.332Z,100.00
2019-02-11T13:32:05.067Z,100.00
2019-02-11T13:34:34.325Z,100.00
2019-02-11T13:37:08.094Z,100.00
2019-02-11T13:39:38.368Z,100.00
2019-02-11T13:42:07.374Z,100.00
2019-02-11T13:44:41.722Z,100.00
2019-02-11T13:47:15.543Z,100.00
2019-02-11T13:49:46.542Z,100.00
2019-02-11T13:52:14.981Z,100.00
2019-02-11T13:54:46.650Z,100.00
2019-02-11T13:57:15.631Z,100.00
2019-02-11T13:59:44.574Z,100.00
2019-02-11T14:02:13.471Z,100.00
2019-02-11T14:04:42.277Z,100.00
2019-02-11T14:07:11.113Z,100.00
2019-02-11T14:09:39.737Z,100.00
2019-02-11T14:12:11.038Z,100.00
2019-02-11T14:14:39.760Z,100.00
2019-02-11T14:17:08.419Z,100.00
2019-02-11T14:19:37.061Z,100.00
2019-02-11T14:22:05.762Z,100.00
2019-02-11T14:24:34.372Z,100.00
2019-02-11T14:27:05.783Z,100.00
2019-02-11T14:29:34.286Z,100.00
2019-02-11T14:32:02.898Z,100.00
2019-02-11T14:34:31.544Z,97.88
2019-02-11T14:37:00.194Z,97.00
2019-02-11T14:39:28.827Z,95.79
2019-02-11T14:42:02.986Z,94.21
2019-02-11T14:44:31.673Z,91.59
2019-02-11T14:47:00.228Z,81.78
2019-02-11T14:49:28.797Z,75.56
2019-02-11T14:51:57.404Z,68.08
2019-02-11T14:54:25.961Z,67.44
2019-02-11T14:56:57.452Z,72.23
2019-02-11T14:59:25.933Z,76.76
2019-02-11T15:01:54.477Z,80.18
2019-02-11T15:04:28.540Z,82.50
2019-02-11T15:06:57.049Z,83.82
2019-02-11T15:09:25.784Z,87.29
2019-02-11T15:11:54.398Z,91.22
2019-02-11T15:14:23.011Z,95.16
2019-02-11T15:16:51.617Z,97.82
2019-02-11T15:19:20.189Z,99.07
2019-02-11T15:21:48.842Z,100.00
2019-02-11T15:24:17.332Z,100.00
2019-02-11T15:26:48.565Z,100.00
2019-02-11T15:29:17.120Z,100.00
2019-02-11T15:31:45.801Z,100.00
2019-02-11T15:34:16.843Z,100.00
2019-02-11T15:36:45.342Z,100.00
2019-02-11T15:39:13.945Z,100.00
2019-02-11T15:41:42.605Z,100.00
2019-02-11T15:44:11.157Z,100.00
2019-02-11T15:46:42.850Z,100.00
2019-02-11T15:49:11.452Z,100.00
2019-02-11T15:51:40.006Z,100.00
2019-02-11T15:54:11.386Z,100.00
2019-02-11T15:56:42.784Z,100.00
2019-02-11T15:59:11.411Z,100.00
2019-02-11T16:01:40.016Z,100.00
2019-02-11T16:04:14.195Z,100.00
2019-02-11T16:06:42.800Z,100.00
2019-02-11T16:09:11.443Z,100.00
2019-02-11T16:11:40.007Z,100.00
2019-02-11T16:14:08.772Z,100.00
2019-02-11T16:16:37.322Z,100.00
2019-02-11T16:19:05.904Z,100.00
2019-02-11T16:21:34.594Z,100.00
2019-02-11T16:24:08.543Z,100.00
2019-02-11T16:26:37.065Z,100.00
2019-02-11T16:29:05.713Z,100.00
2019-02-11T16:31:39.531Z,100.00
2019-02-11T16:34:08.032Z,100.00
2019-02-11T16:36:36.689Z,100.00
2019-02-11T16:39:06.065Z,100.00
2019-02-11T16:41:34.745Z,100.00
2019-02-11T16:44:03.371Z,100.00
2019-02-11T16:46:34.987Z,100.00
2019-02-11T16:49:03.558Z,100.00
2019-02-11T16:51:32.166Z,100.00
2019-02-11T16:54:06.664Z,100.00
2019-02-11T16:56:35.337Z,100.00
2019-02-11T16:59:03.898Z,100.00
2019-02-11T17:01:32.492Z,100.00
2019-02-11T17:04:00.993Z,100.00
2019-02-11T17:06:29.538Z,100.00
2019-02-11T17:08:58.104Z,100.00
2019-02-11T17:11:26.745Z,100.00
2019-02-11T17:13:55.365Z,100.00
2019-02-11T17:16:25.112Z,100.00
2019-02-11T17:18:53.880Z,100.00
2019-02-11T17:21:22.436Z,100.00
2019-02-11T17:23:51.051Z,100.00
2019-02-11T17:26:19.610Z,100.00
2019-02-11T17:28:48.170Z,100.00
2019-02-11T17:31:17.062Z,100.00
2019-02-11T17:33:48.777Z,100.00
2019-02-11T17:36:17.471Z,100.00
2019-02-11T17:38:46.122Z,100.00
2019-02-11T17:41:14.801Z,100.00
2019-02-11T17:43:43.349Z,100.00
2019-02-11T17:46:12.119Z,100.00
2019-02-11T17:48:40.684Z,100.00
2019-02-11T17:51:09.427Z,100.00
2019-02-11T17:53:41.097Z,100.00
2019-02-11T17:56:09.945Z,100.00
2019-02-11T17:58:38.584Z,100.00
2019-02-11T18:01:07.337Z,100.00
2019-02-11T18:03:35.994Z,100.00
2019-02-11T18:06:04.653Z,100.00
2019-02-11T18:08:33.231Z,100.00
2019-02-11T18:11:01.781Z,100.00
2019-02-11T18:13:30.414Z,100.00
2019-02-11T18:15:59.052Z,100.00
2019-02-11T18:18:27.736Z,100.00
2019-02-11T18:20:56.299Z,100.00
2019-02-11T18:23:25.872Z,100.00
2019-02-11T18:25:57.108Z,100.00
2019-02-11T18:28:25.718Z,100.00
2019-02-11T18:30:54.346Z,100.00
2019-02-11T18:33:23.038Z,100.00
2019-02-11T18:35:51.604Z,100.00
2019-02-11T18:38:20.106Z,100.00
2019-02-11T18:40:48.780Z,100.00
2019-02-11T18:43:17.744Z,100.00
2019-02-11T18:45:46.365Z,100.00
2019-02-11T18:48:18.029Z,100.00
2019-02-11T18:50:46.700Z,100.00
2019-02-11T18:53:15.319Z,100.00
2019-02-11T18:55:43.943Z,100.00
2019-02-11T18:58:12.580Z,100.00
2019-02-11T19:00:41.203Z,100.00
2019-02-11T19:03:12.466Z,100.00
2019-02-11T19:05:41.073Z,100.00
2019-02-11T19:08:09.708Z,100.00
2019-02-11T19:10:41.216Z,100.00
2019-02-11T19:13:12.772Z,100.00
2019-02-11T19:15:41.476Z,100.00
2019-02-11T19:18:12.855Z,100.00
2019-02-11T19:20:41.483Z,100.00
2019-02-11T19:23:10.058Z,100.00
2019-02-11T19:25:41.582Z,100.00
2019-02-11T19:28:10.212Z,100.00
2019-02-11T19:30:38.778Z,100.00
2019-02-11T19:33:07.342Z,100.00
2019-02-11T19:35:35.912Z,100.00
2019-02-11T19:38:04.670Z,100.00
2019-02-11T19:40:33.374Z,100.00
2019-02-11T19:43:01.964Z,100.00
2019-02-11T19:45:30.583Z,100.00
2019-02-11T19:48:02.060Z,100.00
2019-02-11T19:50:30.678Z,100.00
2019-02-11T19:52:59.292Z,100.00
2019-02-11T19:55:27.847Z,100.00
2019-02-11T19:57:56.531Z,100.00
2019-02-11T20:00:25.185Z,100.00
2019-02-11T20:02:53.792Z,100.00
2019-02-11T20:05:22.445Z,100.00
2019-02-11T20:07:51.065Z,100.00
2019-02-11T20:10:21.587Z,100.00
2019-02-11T20:12:50.395Z,100.00
2019-02-11T20:15:24.578Z,100.00
2019-02-11T20:17:55.955Z,100.00
2019-02-11T20:20:24.611Z,100.00
2019-02-11T20:22:53.145Z,100.00
2019-02-11T20:25:21.783Z,100.00
2019-02-11T20:27:50.464Z,100.00
2019-02-11T20:30:26.805Z,100.00
2019-02-11T20:32:55.506Z,100.00
2019-02-11T20:35:24.158Z,100.00
2019-02-11T20:37:52.728Z,100.00
2019-02-11T20:40:29.362Z,100.00
2019-02-11T20:42:57.997Z,100.00
2019-02-11T20:45:28.324Z,100.00
2019-02-11T20:48:00.315Z,100.00
2019-02-11T20:50:31.932Z,100.00
2019-02-11T20:53:00.574Z,100.00
2019-02-11T20:55:29.247Z,100.00
2019-02-11T20:57:59.950Z,100.00
2019-02-11T21:00:28.627Z,100.00
2019-02-11T21:02:57.264Z,100.00
2019-02-11T21:05:25.935Z,100.00
2019-02-11T21:07:54.595Z,100.00
2019-02-11T21:10:25.381Z,100.00
2019-02-11T21:12:54.029Z,100.00
2019-02-11T21:15:22.905Z,100.00
2019-02-11T21:17:51.548Z,100.00
2019-02-11T21:20:33.766Z,100.00
2019-02-11T21:23:02.402Z,100.00
2019-02-11T21:25:31.076Z,100.00
2019-02-11T21:27:59.719Z,100.00
2019-02-11T21:30:28.406Z,100.00
2019-02-11T21:32:56.982Z,100.00
2019-02-11T21:35:26.038Z,100.00
2019-02-11T21:37:54.706Z,100.00
2019-02-11T21:40:23.463Z,100.00
2019-02-11T21:42:52.108Z,100.00
2019-02-11T21:45:23.443Z,100.00
2019-02-11T21:47:52.045Z,100.00
2019-02-11T21:50:26.697Z,100.00
2019-02-11T21:52:52.451Z,100.00
2019-02-11T21:55:26.848Z,100.00
2019-02-11T21:57:55.485Z,100.00
2019-02-11T22:00:24.342Z,100.00
2019-02-11T22:02:55.395Z,100.00
2019-02-11T22:05:26.831Z,100.00
2019-02-11T22:07:55.448Z,100.00
2019-02-11T22:10:24.439Z,100.00
2019-02-11T22:12:53.049Z,100.00
2019-02-11T22:15:21.743Z,100.00
2019-02-11T22:17:53.105Z,100.00
2019-02-11T22:20:22.342Z,100.00
2019-02-11T22:22:50.985Z,100.00
2019-02-11T22:25:19.639Z,100.00
2019-02-11T22:27:48.183Z,100.00
2019-02-11T22:30:21.949Z,100.00
2019-02-11T22:32:50.504Z,100.00
2019-02-11T22:35:19.150Z,100.00
2019-02-11T22:37:49.697Z,100.00
2019-02-11T22:40:18.454Z,100.00
2019-02-11T22:42:47.192Z,100.00
2019-02-11T22:45:17.978Z,100.00
2019-02-11T22:47:46.616Z,100.00
2019-02-11T22:50:15.292Z,100.00
2019-02-11T22:52:43.977Z,100.00
2019-02-11T22:55:14.334Z,100.00
2019-02-11T22:57:43.014Z,100.00
2019-02-11T23:00:28.749Z,100.00
2019-02-11T23:02:57.612Z,100.00
2019-02-11T23:05:26.175Z,100.00
2019-02-11T23:07:54.785Z,100.00
2019-02-11T23:10:23.455Z,100.00
2019-02-11T23:12:52.018Z,100.00
2019-02-11T23:15:20.688Z,100.00
2019-02-11T23:17:49.296Z,100.00
2019-02-11T23:20:17.914Z,100.00
2019-02-11T23:22:46.485Z,100.00
2019-02-11T23:25:15.053Z,100.00
2019-02-11T23:27:43.662Z,100.00
2019-02-11T23:30:13.802Z,100.00
2019-02-11T23:32:45.727Z,100.00
2019-02-11T23:35:14.432Z,100.00
2019-02-11T23:37:43.054Z,100.00
2019-02-11T23:40:11.691Z,100.00
2019-02-11T23:42:40.379Z,100.00
2019-02-11T23:45:11.327Z,100.00
2019-02-11T23:47:40.812Z,100.00
2019-02-11T23:50:11.414Z,100.00
2019-02-11T23:52:40.050Z,100.00
2019-02-11T23:55:11.560Z,100.00
2019-02-11T23:57:41.124Z,100.00
